sensor_id;sensor_type;location;lat;lon;timestamp;pressure;altitude;pressure_sealevel;temperature;humidity
30463;BME280;17256;43.618;25.336;2023-09-19T00:00:42;100811.78;;;18.14;99.45
30463;BME280;17256;43.618;25.336;2023-09-19T00:03:13;100876.00;;;18.53;98.63
30463;BME280;17256;43.618;25.336;2023-09-19T00:05:40;100960.81;;;19.14;98.76
30463;BME280;17256;43.618;25.336;2023-09-19T00:08:09;100686.94;;;17.49;97.81
30463;BME280;17256;43.618;25.336;2023-09-19T00:10:35;100728.59;;;17.72;96.75
30463;BME280;17256;43.618;25.336;2023-09-19T00:13:02;100595.84;;;16.99;96.70
30463;BME280;17256;43.618;25.336;2023-09-19T00:15:39;100815.03;;;18.34;96.01
30463;BME280;17256;43.618;25.336;2023-09-19T00:18:06;100639.78;;;17.37;95.50
30463;BME280;17256;43.618;25.336;2023-09-19T00:20:35;100721.97;;;17.73;96.07
30463;BME280;17256;43.618;25.336;2023-09-19T00:23:01;100671.63;;;17.46;95.59
30463;BME280;17256;43.618;25.336;2023-09-19T00:25:30;100850.88;;;18.59;96.65
30463;BME280;17256;43.618;25.336;2023-09-19T00:27:58;100667.88;;;17.41;96.59
30463;BME280;17256;43.618;25.336;2023-09-19T00:30:23;100673.31;;;17.36;97.12
30463;BME280;17256;43.618;25.336;2023-09-19T00:32:51;100833.50;;;18.40;97.21
30463;BME280;17256;43.618;25.336;2023-09-19T00:35:20;100720.88;;;17.63;96.60
30463;BME280;17256;43.618;25.336;2023-09-19T00:37:50;100863.69;;;18.60;96.92
30463;BME280;17256;43.618;25.336;2023-09-19T00:40:16;100665.94;;;17.41;96.78
30463;BME280;17256;43.618;25.336;2023-09-19T00:43:13;100959.56;;;19.21;97.41
30463;BME280;17256;43.618;25.336;2023-09-19T00:45:43;100690.91;;;17.53;96.74
30463;BME280;17256;43.618;25.336;2023-09-19T00:48:09;100644.81;;;17.29;96.35
30463;BME280;17256;43.618;25.336;2023-09-19T00:50:36;100629.38;;;17.09;96.84
30463;BME280;17256;43.618;25.336;2023-09-19T00:53:02;100650.63;;;17.27;97.35
30463;BME280;17256;43.618;25.336;2023-09-19T00:55:33;100717.38;;;17.67;97.20
30463;BME280;17256;43.618;25.336;2023-09-19T00:58:00;100834.84;;;18.38;96.80
30463;BME280;17256;43.618;25.336;2023-09-19T01:00:26;100733.06;;;17.73;97.45
30463;BME280;17256;43.618;25.336;2023-09-19T01:02:52;100699.13;;;17.48;97.63
30463;BME280;17256;43.618;25.336;2023-09-19T01:05:18;100826.50;;;18.26;97.52
30463;BME280;17256;43.618;25.336;2023-09-19T01:07:44;100677.06;;;17.41;97.44
30463;BME280;17256;43.618;25.336;2023-09-19T01:10:15;100870.94;;;18.61;97.77
30463;BME280;17256;43.618;25.336;2023-09-19T01:18:23;100676.69;;;17.38;97.75
30463;BME280;17256;43.618;25.336;2023-09-19T01:20:49;100839.31;;;18.39;98.48
30463;BME280;17256;43.618;25.336;2023-09-19T01:23:26;100600.69;;;16.92;98.41
30463;BME280;17256;43.618;25.336;2023-09-19T01:26:10;100871.19;;;18.48;99.22
30463;BME280;17256;43.618;25.336;2023-09-19T01:29:26;100749.97;;;17.72;99.52
30463;BME280;17256;43.618;25.336;2023-09-19T01:32:05;100633.88;;;16.87;100.00
30463;BME280;17256;43.618;25.336;2023-09-19T01:34:50;100640.38;;;17.04;100.00
30463;BME280;17256;43.618;25.336;2023-09-19T01:37:19;100820.00;;;18.09;100.00
30463;BME280;17256;43.618;25.336;2023-09-19T01:39:52;100713.88;;;17.37;100.00
30463;BME280;17256;43.618;25.336;2023-09-19T01:42:42;100750.41;;;17.34;100.00
30463;BME280;17256;43.618;25.336;2023-09-19T01:45:16;100948.09;;;18.54;100.00
30463;BME280;17256;43.618;25.336;2023-09-19T01:47:52;100803.25;;;17.69;100.00
30463;BME280;17256;43.618;25.336;2023-09-19T01:50:31;100828.84;;;17.71;100.00
30463;BME280;17256;43.618;25.336;2023-09-19T01:53:22;100951.84;;;18.48;100.00
30463;BME280;17256;43.618;25.336;2023-09-19T01:55:50;100837.16;;;17.82;100.00
30463;BME280;17256;43.618;25.336;2023-09-19T01:58:27;100766.47;;;17.32;100.00
30463;BME280;17256;43.618;25.336;2023-09-19T02:00:56;100751.03;;;17.24;100.00
30463;BME280;17256;43.618;25.336;2023-09-19T02:03:24;100941.19;;;18.33;100.00
30463;BME280;17256;43.618;25.336;2023-09-19T02:05:53;100724.19;;;16.95;100.00
30463;BME280;17256;43.618;25.336;2023-09-19T02:08:20;100652.63;;;16.31;100.00
30463;BME280;17256;43.618;25.336;2023-09-19T02:10:49;100698.38;;;16.52;100.00
30463;BME280;17256;43.618;25.336;2023-09-19T02:13:22;100745.56;;;16.94;100.00
30463;BME280;17256;43.618;25.336;2023-09-19T02:15:53;100762.25;;;16.76;100.00
30463;BME280;17256;43.618;25.336;2023-09-19T02:18:19;100744.41;;;16.53;100.00
30463;BME280;17256;43.618;25.336;2023-09-19T02:20:45;100834.69;;;16.98;100.00
30463;BME280;17256;43.618;25.336;2023-09-19T02:23:14;100840.47;;;16.96;100.00
30463;BME280;17256;43.618;25.336;2023-09-19T02:25:41;100683.72;;;16.04;100.00
30463;BME280;17256;43.618;25.336;2023-09-19T02:28:09;100607.28;;;15.48;100.00
30463;BME280;17256;43.618;25.336;2023-09-19T02:30:35;100736.22;;;16.28;100.00
30463;BME280;17256;43.618;25.336;2023-09-19T02:33:02;100611.44;;;15.38;100.00
30463;BME280;17256;43.618;25.336;2023-09-19T02:35:29;100705.13;;;15.96;100.00
30463;BME280;17256;43.618;25.336;2023-09-19T02:37:58;100710.03;;;15.94;100.00
30463;BME280;17256;43.618;25.336;2023-09-19T02:40:25;100974.84;;;17.37;100.00
30463;BME280;17256;43.618;25.336;2023-09-19T02:42:55;100725.19;;;15.74;100.00
30463;BME280;17256;43.618;25.336;2023-09-19T02:45:22;100805.75;;;16.27;100.00
30463;BME280;17256;43.618;25.336;2023-09-19T02:47:49;100840.84;;;16.33;100.00
30463;BME280;17256;43.618;25.336;2023-09-19T02:50:16;100787.13;;;15.97;100.00
30463;BME280;17256;43.618;25.336;2023-09-19T02:52:43;100740.19;;;15.66;100.00
30463;BME280;17256;43.618;25.336;2023-09-19T02:55:11;100878.34;;;16.36;100.00
30463;BME280;17256;43.618;25.336;2023-09-19T02:57:38;100696.75;;;15.23;100.00
30463;BME280;17256;43.618;25.336;2023-09-19T03:00:09;100881.09;;;16.36;100.00
30463;BME280;17256;43.618;25.336;2023-09-19T03:02:36;100782.03;;;15.76;100.00
30463;BME280;17256;43.618;25.336;2023-09-19T03:05:04;100928.16;;;16.60;100.00
30463;BME280;17256;43.618;25.336;2023-09-19T03:07:30;100867.41;;;16.22;100.00
30463;BME280;17256;43.618;25.336;2023-09-19T03:09:56;100896.03;;;16.35;100.00
30463;BME280;17256;43.618;25.336;2023-09-19T03:12:22;100824.81;;;15.80;100.00
30463;BME280;17256;43.618;25.336;2023-09-19T03:14:48;100661.19;;;14.77;100.00
30463;BME280;17256;43.618;25.336;2023-09-19T03:17:14;100891.41;;;16.10;100.00
30463;BME280;17256;43.618;25.336;2023-09-19T03:19:40;100619.72;;;14.52;100.00
30463;BME280;17256;43.618;25.336;2023-09-19T03:22:07;100767.44;;;15.19;100.00
30463;BME280;17256;43.618;25.336;2023-09-19T03:24:33;100840.88;;;15.72;100.00
30463;BME280;17256;43.618;25.336;2023-09-19T03:27:03;100774.44;;;15.22;100.00
30463;BME280;17256;43.618;25.336;2023-09-19T03:29:29;100833.09;;;15.62;100.00
30463;BME280;17256;43.618;25.336;2023-09-19T03:31:58;100934.63;;;16.18;100.00
30463;BME280;17256;43.618;25.336;2023-09-19T03:34:24;100651.66;;;14.48;100.00
30463;BME280;17256;43.618;25.336;2023-09-19T03:36:50;100642.34;;;14.36;100.00
30463;BME280;17256;43.618;25.336;2023-09-19T03:39:16;100635.13;;;14.35;100.00
30463;BME280;17256;43.618;25.336;2023-09-19T03:41:42;100785.09;;;15.18;100.00
30463;BME280;17256;43.618;25.336;2023-09-19T03:44:08;100811.41;;;15.27;100.00
30463;BME280;17256;43.618;25.336;2023-09-19T03:46:34;100743.16;;;14.96;100.00
30463;BME280;17256;43.618;25.336;2023-09-19T03:49:01;100820.28;;;15.36;100.00
30463;BME280;17256;43.618;25.336;2023-09-19T03:51:28;100843.78;;;15.52;100.00
30463;BME280;17256;43.618;25.336;2023-09-19T03:53:54;100668.28;;;14.35;100.00
30463;BME280;17256;43.618;25.336;2023-09-19T03:56:20;100931.00;;;15.92;100.00
30463;BME280;17256;43.618;25.336;2023-09-19T03:58:45;100944.19;;;15.97;100.00
30463;BME280;17256;43.618;25.336;2023-09-19T04:01:11;100868.66;;;15.58;100.00
30463;BME280;17256;43.618;25.336;2023-09-19T04:03:38;100923.44;;;15.81;100.00
30463;BME280;17256;43.618;25.336;2023-09-19T04:06:16;100958.19;;;16.02;100.00
30463;BME280;17256;43.618;25.336;2023-09-19T04:08:42;100897.16;;;15.65;100.00
30463;BME280;17256;43.618;25.336;2023-09-19T04:11:08;100917.03;;;15.81;100.00
30463;BME280;17256;43.618;25.336;2023-09-19T04:13:34;100955.94;;;15.92;100.00
30463;BME280;17256;43.618;25.336;2023-09-19T04:16:00;100950.34;;;15.74;100.00
30463;BME280;17256;43.618;25.336;2023-09-19T04:18:26;100969.63;;;15.87;100.00
30463;BME280;17256;43.618;25.336;2023-09-19T04:20:52;100887.91;;;15.47;100.00
30463;BME280;17256;43.618;25.336;2023-09-19T04:23:19;100951.13;;;15.81;100.00
30463;BME280;17256;43.618;25.336;2023-09-19T04:25:47;100973.56;;;16.23;100.00
30463;BME280;17256;43.618;25.336;2023-09-19T04:28:13;100884.09;;;15.97;100.00
30463;BME280;17256;43.618;25.336;2023-09-19T04:30:39;100943.94;;;16.60;100.00
30463;BME280;17256;43.618;25.336;2023-09-19T04:33:07;100953.94;;;16.86;100.00
30463;BME280;17256;43.618;25.336;2023-09-19T04:35:33;100940.75;;;17.00;100.00
30463;BME280;17256;43.618;25.336;2023-09-19T04:37:59;100975.44;;;17.39;100.00
30463;BME280;17256;43.618;25.336;2023-09-19T04:40:25;100968.69;;;17.46;100.00
30463;BME280;17256;43.618;25.336;2023-09-19T04:42:58;100863.47;;;16.85;100.00
30463;BME280;17256;43.618;25.336;2023-09-19T04:45:24;100950.59;;;17.44;100.00
30463;BME280;17256;43.618;25.336;2023-09-19T04:47:51;100797.69;;;16.55;100.00
30463;BME280;17256;43.618;25.336;2023-09-19T04:50:32;100854.00;;;17.04;100.00
30463;BME280;17256;43.618;25.336;2023-09-19T04:53:03;100736.19;;;16.17;100.00
30463;BME280;17256;43.618;25.336;2023-09-19T04:55:49;100814.00;;;16.82;100.00
30463;BME280;17256;43.618;25.336;2023-09-19T04:58:21;100969.84;;;17.99;100.00
30463;BME280;17256;43.618;25.336;2023-09-19T05:00:49;100919.06;;;17.80;100.00
30463;BME280;17256;43.618;25.336;2023-09-19T05:03:29;100934.34;;;18.12;100.00
30463;BME280;17256;43.618;25.336;2023-09-19T05:06:08;100773.53;;;17.04;100.00
30463;BME280;17256;43.618;25.336;2023-09-19T05:08:37;100760.63;;;16.86;100.00
30463;BME280;17256;43.618;25.336;2023-09-19T05:11:08;100812.03;;;16.52;100.00
30463;BME280;17256;43.618;25.336;2023-09-19T05:13:40;100972.63;;;17.09;100.00
30463;BME280;17256;43.618;25.336;2023-09-19T05:16:19;100975.63;;;17.26;100.00
30463;BME280;17256;43.618;25.336;2023-09-19T05:18:48;100932.63;;;17.58;100.00
30463;BME280;17256;43.618;25.336;2023-09-19T05:21:39;100964.75;;;18.07;100.00
30463;BME280;17256;43.618;25.336;2023-09-19T05:24:35;100958.25;;;18.60;100.00
30463;BME280;17256;43.618;25.336;2023-09-19T05:27:10;100861.19;;;18.35;100.00
30463;BME280;17256;43.618;25.336;2023-09-19T05:30:11;100961.00;;;19.35;100.00
30463;BME280;17256;43.618;25.336;2023-09-19T05:33:21;100829.81;;;18.11;100.00
30463;BME280;17256;43.618;25.336;2023-09-19T05:36:19;100950.00;;;18.54;100.00
30463;BME280;17256;43.618;25.336;2023-09-19T05:39:31;100919.75;;;18.81;100.00
30463;BME280;17256;43.618;25.336;2023-09-19T05:42:40;100962.22;;;19.28;100.00
30463;BME280;17256;43.618;25.336;2023-09-19T05:46:01;100954.84;;;18.82;100.00
30463;BME280;17256;43.618;25.336;2023-09-19T05:48:51;100951.31;;;18.98;100.00
30463;BME280;17256;43.618;25.336;2023-09-19T05:51:44;100934.28;;;18.83;100.00
30463;BME280;17256;43.618;25.336;2023-09-19T05:54:19;100740.81;;;17.71;100.00
30463;BME280;17256;43.618;25.336;2023-09-19T05:58:00;100946.81;;;19.09;100.00
30463;BME280;17256;43.618;25.336;2023-09-19T06:00:44;100727.72;;;17.83;100.00
30463;BME280;17256;43.618;25.336;2023-09-19T06:03:19;100884.91;;;19.18;100.00
30463;BME280;17256;43.618;25.336;2023-09-19T06:06:06;100940.03;;;19.33;100.00
30463;BME280;17256;43.618;25.336;2023-09-19T06:08:57;100946.47;;;19.62;100.00
30463;BME280;17256;43.618;25.336;2023-09-19T06:11:52;100942.28;;;19.93;100.00
30463;BME280;17256;43.618;25.336;2023-09-19T06:14:35;100942.28;;;19.93;100.00
30463;BME280;17256;43.618;25.336;2023-09-19T06:17:28;100876.22;;;19.15;100.00
30463;BME280;17256;43.618;25.336;2023-09-19T06:20:40;100866.13;;;19.42;100.00
30463;BME280;17256;43.618;25.336;2023-09-19T06:23:59;100879.59;;;20.12;100.00
30463;BME280;17256;43.618;25.336;2023-09-19T06:36:34;100936.31;;;21.71;100.00
30463;BME280;17256;43.618;25.336;2023-09-19T06:43:10;100736.13;;;20.03;100.00
30463;BME280;17256;43.618;25.336;2023-09-19T06:45:36;100824.22;;;20.21;100.00
30463;BME280;17256;43.618;25.336;2023-09-19T06:48:02;100710.06;;;19.71;100.00
30463;BME280;17256;43.618;25.336;2023-09-19T06:50:28;100707.28;;;20.36;100.00
30463;BME280;17256;43.618;25.336;2023-09-19T06:52:56;100716.81;;;20.62;100.00
30463;BME280;17256;43.618;25.336;2023-09-19T06:55:24;100785.88;;;21.31;100.00
30463;BME280;17256;43.618;25.336;2023-09-19T06:57:53;100853.06;;;21.78;98.56
30463;BME280;17256;43.618;25.336;2023-09-19T07:00:21;100890.13;;;22.32;97.23
30463;BME280;17256;43.618;25.336;2023-09-19T07:03:03;100924.31;;;22.82;95.26
30463;BME280;17256;43.618;25.336;2023-09-19T07:05:31;100754.22;;;21.99;92.43
30463;BME280;17256;43.618;25.336;2023-09-19T07:07:58;100804.00;;;22.50;90.44
30463;BME280;17256;43.618;25.336;2023-09-19T07:10:25;100920.84;;;22.69;94.20
30463;BME280;17256;43.618;25.336;2023-09-19T07:13:03;100920.63;;;22.34;92.82
30463;BME280;17256;43.618;25.336;2023-09-19T07:42:49;100789.91;;;24.04;75.03
30463;BME280;17256;43.618;25.336;2023-09-19T07:45:16;100717.41;;;23.56;74.11
30463;BME280;17256;43.618;25.336;2023-09-19T07:48:01;100866.47;;;24.24;75.29
30463;BME280;17256;43.618;25.336;2023-09-19T07:50:30;100720.97;;;23.77;75.26
30463;BME280;17256;43.618;25.336;2023-09-19T07:52:56;100741.53;;;24.42;70.56
30463;BME280;17256;43.618;25.336;2023-09-19T07:55:23;100729.28;;;24.18;70.65
30463;BME280;17256;43.618;25.336;2023-09-19T07:57:54;100769.03;;;24.95;68.64
30463;BME280;17256;43.618;25.336;2023-09-19T08:00:20;100852.78;;;24.93;69.15
30463;BME280;17256;43.618;25.336;2023-09-19T08:02:47;100880.75;;;25.62;67.17
30463;BME280;17256;43.618;25.336;2023-09-19T08:05:13;100727.13;;;25.08;64.82
30463;BME280;17256;43.618;25.336;2023-09-19T08:07:43;100811.84;;;25.31;64.35
30463;BME280;17256;43.618;25.336;2023-09-19T08:10:09;100734.06;;;24.72;65.49
30463;BME280;17256;43.618;25.336;2023-09-19T08:12:46;100838.56;;;25.67;62.76
30463;BME280;17256;43.618;25.336;2023-09-19T08:15:13;100784.81;;;25.35;63.15
30463;BME280;17256;43.618;25.336;2023-09-19T08:17:39;100867.25;;;26.27;61.50
30463;BME280;17256;43.618;25.336;2023-09-19T08:20:05;100755.69;;;25.21;63.83
30463;BME280;17256;43.618;25.336;2023-09-19T08:22:32;100769.03;;;25.05;62.75
30463;BME280;17256;43.618;25.336;2023-09-19T08:24:59;100799.22;;;24.74;62.06
30463;BME280;17256;43.618;25.336;2023-09-19T08:27:27;100747.09;;;24.58;61.89
30463;BME280;17256;43.618;25.336;2023-09-19T08:29:53;100778.88;;;24.92;61.34
30463;BME280;17256;43.618;25.336;2023-09-19T08:32:18;100707.91;;;24.81;60.90
30463;BME280;17256;43.618;25.336;2023-09-19T08:34:49;100681.75;;;24.86;59.79
30463;BME280;17256;43.618;25.336;2023-09-19T08:37:15;100779.69;;;25.42;59.64
30463;BME280;17256;43.618;25.336;2023-09-19T08:39:42;100735.00;;;25.06;59.87
30463;BME280;17256;43.618;25.336;2023-09-19T08:42:08;100737.84;;;25.01;58.71
30463;BME280;17256;43.618;25.336;2023-09-19T08:44:37;100822.31;;;26.17;57.03
30463;BME280;17256;43.618;25.336;2023-09-19T08:47:15;100711.16;;;25.62;56.74
30463;BME280;17256;43.618;25.336;2023-09-19T08:49:54;100731.69;;;24.94;57.73
30463;BME280;17256;43.618;25.336;2023-09-19T08:52:30;100837.78;;;25.91;58.78
30463;BME280;17256;43.618;25.336;2023-09-19T08:55:01;100732.53;;;25.63;56.33
30463;BME280;17256;43.618;25.336;2023-09-19T08:57:33;100708.97;;;25.59;55.71
30463;BME280;17256;43.618;25.336;2023-09-19T09:00:02;100648.66;;;24.78;55.22
30463;BME280;17256;43.618;25.336;2023-09-19T09:02:31;100729.09;;;25.03;56.96
30463;BME280;17256;43.618;25.336;2023-09-19T09:04:59;100770.16;;;25.38;56.52
30463;BME280;17256;43.618;25.336;2023-09-19T09:07:25;100646.59;;;24.54;56.81
30463;BME280;17256;43.618;25.336;2023-09-19T09:09:54;100754.44;;;25.37;56.49
30463;BME280;17256;43.618;25.336;2023-09-19T09:12:20;100713.44;;;25.31;56.62
30463;BME280;17256;43.618;25.336;2023-09-19T09:14:46;100790.78;;;25.91;54.16
30463;BME280;17256;43.618;25.336;2023-09-19T09:17:16;100777.06;;;26.38;53.50
30463;BME280;17256;43.618;25.336;2023-09-19T09:19:46;100689.16;;;26.41;52.14
30463;BME280;17256;43.618;25.336;2023-09-19T09:22:12;100817.25;;;27.10;50.86
30463;BME280;17256;43.618;25.336;2023-09-19T09:24:54;100717.09;;;26.37;49.61
30463;BME280;17256;43.618;25.336;2023-09-19T09:27:23;100716.25;;;25.89;50.80
30463;BME280;17256;43.618;25.336;2023-09-19T09:29:51;100689.00;;;25.31;51.27
30463;BME280;17256;43.618;25.336;2023-09-19T09:34:44;100800.56;;;26.23;52.83
30463;BME280;17256;43.618;25.336;2023-09-19T09:37:15;100715.56;;;25.73;52.23
30463;BME280;17256;43.618;25.336;2023-09-19T09:39:49;100765.53;;;25.86;51.74
30463;BME280;17256;43.618;25.336;2023-09-19T09:42:31;100804.94;;;26.10;51.55
30463;BME280;17256;43.618;25.336;2023-09-19T09:45:18;100810.41;;;25.96;53.09
30463;BME280;17256;43.618;25.336;2023-09-19T09:48:24;100767.91;;;26.22;52.38
30463;BME280;17256;43.618;25.336;2023-09-19T09:50:57;100763.25;;;26.60;49.46
30463;BME280;17256;43.618;25.336;2023-09-19T09:53:27;100759.25;;;26.18;49.94
30463;BME280;17256;43.618;25.336;2023-09-19T09:58:37;100773.75;;;26.73;48.56
30463;BME280;17256;43.618;25.336;2023-09-19T10:01:04;100799.16;;;26.92;50.37
30463;BME280;17256;43.618;25.336;2023-09-19T10:03:39;100784.31;;;27.24;50.68
30463;BME280;17256;43.618;25.336;2023-09-19T10:06:13;100742.28;;;27.41;47.99
30463;BME280;17256;43.618;25.336;2023-09-19T10:09:07;100735.31;;;26.63;46.89
30463;BME280;17256;43.618;25.336;2023-09-19T10:11:44;100748.44;;;27.11;49.52
30463;BME280;17256;43.618;25.336;2023-09-19T10:14:15;100774.16;;;26.85;47.58
30463;BME280;17256;43.618;25.336;2023-09-19T10:16:53;100709.50;;;26.56;47.85
30463;BME280;17256;43.618;25.336;2023-09-19T10:19:56;100809.63;;;27.29;48.09
30463;BME280;17256;43.618;25.336;2023-09-19T10:22:42;100771.97;;;26.82;48.41
30463;BME280;17256;43.618;25.336;2023-09-19T10:25:08;100728.59;;;26.41;48.14
30463;BME280;17256;43.618;25.336;2023-09-19T10:27:35;100735.78;;;26.28;48.51
30463;BME280;17256;43.618;25.336;2023-09-19T10:30:06;100637.56;;;25.26;49.10
30463;BME280;17256;43.618;25.336;2023-09-19T10:32:35;100719.59;;;25.91;50.60
30463;BME280;17256;43.618;25.336;2023-09-19T10:35:02;100755.22;;;26.24;48.86
30463;BME280;17256;43.618;25.336;2023-09-19T10:37:32;100756.06;;;26.49;49.79
30463;BME280;17256;43.618;25.336;2023-09-19T10:39:58;100790.88;;;27.01;48.84
30463;BME280;17256;43.618;25.336;2023-09-19T10:42:25;100808.09;;;27.37;48.52
30463;BME280;17256;43.618;25.336;2023-09-19T10:44:54;100740.69;;;27.03;49.46
30463;BME280;17256;43.618;25.336;2023-09-19T10:47:25;100784.78;;;27.31;47.19
30463;BME280;17256;43.618;25.336;2023-09-19T10:49:51;100692.59;;;26.38;49.46
30463;BME280;17256;43.618;25.336;2023-09-19T10:52:22;100740.50;;;26.75;48.71
30463;BME280;17256;43.618;25.336;2023-09-19T10:54:51;100716.81;;;26.57;47.10
30463;BME280;17256;43.618;25.336;2023-09-19T10:57:24;100737.97;;;26.55;47.04
30463;BME280;17256;43.618;25.336;2023-09-19T11:00:03;100740.78;;;26.74;46.15
30463;BME280;17256;43.618;25.336;2023-09-19T11:03:16;100796.91;;;27.32;45.36
30463;BME280;17256;43.618;25.336;2023-09-19T11:06:03;100796.31;;;27.67;46.29
30463;BME280;17256;43.618;25.336;2023-09-19T11:09:10;100775.16;;;27.97;44.60
30463;BME280;17256;43.618;25.336;2023-09-19T11:14:39;100783.59;;;28.57;43.05
30463;BME280;17256;43.618;25.336;2023-09-19T11:30:40;100715.84;;;27.37;45.03
30463;BME280;17256;43.618;25.336;2023-09-19T11:33:25;100769.66;;;27.73;43.27
30463;BME280;17256;43.618;25.336;2023-09-19T11:39:01;100717.03;;;27.17;44.85
30463;BME280;17256;43.618;25.336;2023-09-19T11:41:37;100698.00;;;26.90;44.16
30463;BME280;17256;43.618;25.336;2023-09-19T11:49:26;100755.88;;;27.39;45.20
30463;BME280;17256;43.618;25.336;2023-09-19T11:51:55;100755.53;;;27.27;45.83
30463;BME280;17256;43.618;25.336;2023-09-19T11:54:21;100672.81;;;26.80;45.01
30463;BME280;17256;43.618;25.336;2023-09-19T11:56:54;100725.38;;;27.09;45.37
30463;BME280;17256;43.618;25.336;2023-09-19T11:59:24;100749.31;;;27.25;44.35
30463;BME280;17256;43.618;25.336;2023-09-19T12:05:28;100668.09;;;26.57;45.85
30463;BME280;17256;43.618;25.336;2023-09-19T12:07:54;100618.91;;;26.30;45.25
30463;BME280;17256;43.618;25.336;2023-09-19T12:10:20;100598.66;;;26.10;45.81
30463;BME280;17256;43.618;25.336;2023-09-19T12:12:48;100674.66;;;26.52;45.14
30463;BME280;17256;43.618;25.336;2023-09-19T12:15:14;100740.28;;;26.90;45.95
30463;BME280;17256;43.618;25.336;2023-09-19T12:17:41;100740.13;;;26.82;45.89
30463;BME280;17256;43.618;25.336;2023-09-19T12:20:10;100650.41;;;26.51;45.79
30463;BME280;17256;43.618;25.336;2023-09-19T12:22:40;100709.13;;;26.82;46.81
30463;BME280;17256;43.618;25.336;2023-09-19T12:25:06;100727.53;;;26.93;45.58
30463;BME280;17256;43.618;25.336;2023-09-19T12:27:50;100732.34;;;27.30;45.29
30463;BME280;17256;43.618;25.336;2023-09-19T12:30:19;100724.41;;;27.32;44.75
30463;BME280;17256;43.618;25.336;2023-09-19T12:32:48;100679.22;;;27.05;44.28
30463;BME280;17256;43.618;25.336;2023-09-19T12:35:28;100706.56;;;27.50;44.42
30463;BME280;17256;43.618;25.336;2023-09-19T12:37:55;100706.88;;;27.49;41.89
30463;BME280;17256;43.618;25.336;2023-09-19T12:40:22;100714.69;;;27.71;43.05
30463;BME280;17256;43.618;25.336;2023-09-19T12:42:53;100687.44;;;27.80;44.16
30463;BME280;17256;43.618;25.336;2023-09-19T12:45:20;100710.13;;;27.88;43.35
30463;BME280;17256;43.618;25.336;2023-09-19T12:48:24;100704.22;;;27.57;42.46
30463;BME280;17256;43.618;25.336;2023-09-19T12:51:01;100633.72;;;26.74;43.10
30463;BME280;17256;43.618;25.336;2023-09-19T12:57:33;100683.25;;;27.31;43.09
30463;BME280;17256;43.618;25.336;2023-09-19T13:00:04;100666.19;;;27.22;43.79
30463;BME280;17256;43.618;25.336;2023-09-19T13:02:36;100547.22;;;26.60;43.72
30463;BME280;17256;43.618;25.336;2023-09-19T13:05:03;100696.44;;;27.49;44.40
30463;BME280;17256;43.618;25.336;2023-09-19T13:10:11;100679.16;;;27.23;42.70
30463;BME280;17256;43.618;25.336;2023-09-19T13:12:42;100679.81;;;27.34;43.37
30463;BME280;17256;43.618;25.336;2023-09-19T13:15:14;100683.28;;;27.45;42.68
30463;BME280;17256;43.618;25.336;2023-09-19T13:17:46;100651.72;;;27.43;43.13
30463;BME280;17256;43.618;25.336;2023-09-19T13:20:24;100697.19;;;28.01;41.40
30463;BME280;17256;43.618;25.336;2023-09-19T13:22:54;100652.72;;;27.66;41.82
30463;BME280;17256;43.618;25.336;2023-09-19T13:25:31;100678.16;;;28.07;42.73
30463;BME280;17256;43.618;25.336;2023-09-19T13:27:58;100684.53;;;28.26;42.32
30463;BME280;17256;43.618;25.336;2023-09-19T13:30:28;100659.50;;;28.19;42.14
30463;BME280;17256;43.618;25.336;2023-09-19T13:33:09;100641.56;;;28.29;40.95
30463;BME280;17256;43.618;25.336;2023-09-19T13:35:36;100651.00;;;28.47;39.87
30463;BME280;17256;43.618;25.336;2023-09-19T13:38:04;100679.88;;;28.94;39.27
30463;BME280;17256;43.618;25.336;2023-09-19T13:40:29;100668.56;;;28.94;40.14
30463;BME280;17256;43.618;25.336;2023-09-19T13:42:56;100627.19;;;28.75;39.79
30463;BME280;17256;43.618;25.336;2023-09-19T13:45:22;100624.03;;;28.77;39.44
30463;BME280;17256;43.618;25.336;2023-09-19T13:47:50;100668.44;;;28.99;39.59
30463;BME280;17256;43.618;25.336;2023-09-19T13:50:15;100630.44;;;28.33;39.20
30463;BME280;17256;43.618;25.336;2023-09-19T13:52:42;100601.84;;;27.84;41.55
30463;BME280;17256;43.618;25.336;2023-09-19T13:55:08;100680.97;;;28.07;41.71
30463;BME280;17256;43.618;25.336;2023-09-19T13:57:33;100674.91;;;28.13;42.19
30463;BME280;17256;43.618;25.336;2023-09-19T13:59:59;100643.56;;;28.01;42.22
30463;BME280;17256;43.618;25.336;2023-09-19T14:02:25;100658.31;;;28.26;41.23
30463;BME280;17256;43.618;25.336;2023-09-19T14:04:51;100623.56;;;27.98;40.38
30463;BME280;17256;43.618;25.336;2023-09-19T14:07:17;100662.56;;;28.37;40.62
30463;BME280;17256;43.618;25.336;2023-09-19T14:09:44;100635.13;;;28.24;40.40
30463;BME280;17256;43.618;25.336;2023-09-19T14:12:09;100624.59;;;28.29;39.85
30463;BME280;17256;43.618;25.336;2023-09-19T14:14:35;100647.00;;;28.26;39.61
30463;BME280;17256;43.618;25.336;2023-09-19T14:17:03;100597.31;;;28.11;39.63
30463;BME280;17256;43.618;25.336;2023-09-19T14:19:29;100625.41;;;28.16;41.13
30463;BME280;17256;43.618;25.336;2023-09-19T14:21:55;100631.72;;;28.13;40.58
30463;BME280;17256;43.618;25.336;2023-09-19T14:24:22;100560.47;;;27.80;39.38
30463;BME280;17256;43.618;25.336;2023-09-19T14:26:48;100619.97;;;28.19;38.51
30463;BME280;17256;43.618;25.336;2023-09-19T14:29:15;100606.94;;;27.96;37.86